Time;durP1;ratioP1;P1;durP2;ratioP2;P2;SDS_P1;SDS_P2;PMS_P1;PMS_P2;Temp;Humidity;BMP_temperature;BMP_pressure;BME280_temperature;BME280_humidity;BME280_pressure;Samples;Min_cycle;Max_cycle;Signal;HPM_P1;HPM_P2
2022/04/21 00:00:46;;;;;;;10.30;5.35;;;8.00;99.90;;;;;;5033219;28;20116;-76
2022/04/21 00:03:13;;;;;;;8.45;5.75;;;7.90;99.90;;;;;;5050697;28;20048;-76
2022/04/21 00:05:41;;;;;;;8.20;5.97;;;7.90;99.90;;;;;;5050868;28;20080;-76
2022/04/21 00:08:09;;;;;;;9.02;5.10;;;7.90;99.90;;;;;;5042247;28;20047;-77
2022/04/21 00:10:38;;;;;;;9.13;5.40;;;7.90;99.90;;;;;;5049289;28;20075;-76
2022/04/21 00:13:07;;;;;;;9.65;5.35;;;7.90;99.90;;;;;;5033627;28;20041;-75
2022/04/21 00:15:32;;;;;;;8.05;5.60;;;7.80;99.90;;;;;;5050431;28;20094;-78
2022/04/21 00:17:59;;;;;;;7.68;5.53;;;7.80;99.90;;;;;;5050855;28;20041;-76
2022/04/21 00:20:25;;;;;;;9.40;5.80;;;7.80;99.90;;;;;;5047966;28;20037;-76
2022/04/21 00:25:34;;;;;;;7.60;5.50;;;7.80;99.90;;;;;;5050313;28;20091;-75
2022/04/21 00:28:00;;;;;;;8.32;5.63;;;7.70;99.90;;;;;;5049807;28;20478;-76
2022/04/21 00:30:26;;;;;;;7.72;5.38;;;7.70;99.90;;;;;;5046858;28;20560;-76
2022/04/21 00:32:54;;;;;;;8.27;5.68;;;7.60;99.90;;;;;;5032027;28;20069;-76
2022/04/21 00:35:20;;;;;;;9.18;6.00;;;7.60;99.90;;;;;;5048909;28;20064;-76
2022/04/21 00:37:51;;;;;;;8.02;5.90;;;7.50;99.90;;;;;;5034424;28;20491;-76
2022/04/21 00:40:18;;;;;;;7.47;5.80;;;7.40;99.90;;;;;;5049354;28;20048;-76
2022/04/21 00:42:45;;;;;;;7.93;5.68;;;7.50;99.90;;;;;;5029219;28;20045;-76
2022/04/21 00:45:12;;;;;;;9.50;6.50;;;7.40;99.90;;;;;;5030842;28;20053;-76
2022/04/21 00:47:43;;;;;;;8.05;5.45;;;7.30;99.90;;;;;;5032270;28;21184;-77
2022/04/21 00:50:24;;;;;;;9.30;5.95;;;7.30;99.90;;;;;;5049846;28;20048;-76
2022/04/21 00:52:54;;;;;;;8.50;5.70;;;7.30;99.90;;;;;;5044718;28;20037;-76
2022/04/21 00:55:21;;;;;;;9.55;5.85;;;7.20;99.90;;;;;;5043029;28;20052;-75
2022/04/21 00:57:50;;;;;;;8.02;5.68;;;7.20;99.90;;;;;;5050063;28;20071;-76
2022/04/21 01:00:16;;;;;;;7.45;5.80;;;7.20;99.90;;;;;;5049919;28;20040;-77
2022/04/21 01:02:46;;;;;;;8.95;6.65;;;7.10;99.90;;;;;;5052659;28;20195;-76
2022/04/21 01:05:28;;;;;;;8.43;5.55;;;7.10;99.90;;;;;;5054255;28;20298;-76
2022/04/21 01:07:55;;;;;;;8.75;5.88;;;7.10;99.90;;;;;;5060654;28;20045;-76
2022/04/21 01:10:22;;;;;;;8.68;5.85;;;7.10;99.90;;;;;;5063327;28;20037;-77
2022/04/21 01:12:48;;;;;;;8.75;5.63;;;7.10;99.90;;;;;;5063850;28;20049;-76
2022/04/21 01:15:14;;;;;;;10.07;5.93;;;7.20;99.90;;;;;;5046687;28;20041;-75
2022/04/21 01:17:41;;;;;;;8.60;5.88;;;7.20;99.90;;;;;;5063664;28;20076;-76
2022/04/21 01:20:09;;;;;;;10.43;6.32;;;7.20;99.90;;;;;;5054407;28;20394;-75
2022/04/21 01:22:36;;;;;;;9.98;6.22;;;7.10;99.90;;;;;;5027383;28;20123;-76
2022/04/21 01:25:02;;;;;;;8.38;6.55;;;7.00;99.90;;;;;;5035740;28;20486;-76
2022/04/21 01:27:31;;;;;;;10.82;7.00;;;7.00;99.90;;;;;;5033837;28;20042;-75
2022/04/21 01:29:57;;;;;;;10.20;6.50;;;7.00;99.90;;;;;;5039206;28;20033;-75
2022/04/21 01:32:23;;;;;;;8.40;6.25;;;6.90;99.90;;;;;;5052308;28;20055;-75
2022/04/21 01:34:48;;;;;;;10.27;6.85;;;6.90;99.90;;;;;;5053336;28;20045;-75
2022/04/21 01:42:45;;;;;;;9.70;6.85;;;6.60;99.90;;;;;;5052017;28;20041;-75
2022/04/21 01:45:11;;;;;;;9.88;6.30;;;6.40;99.90;;;;;;5049173;28;20473;-75
2022/04/21 01:47:39;;;;;;;9.25;7.18;;;6.30;99.90;;;;;;5048619;28;20041;-76
2022/04/21 01:50:07;;;;;;;9.23;6.85;;;6.20;99.90;;;;;;5051900;28;20453;-75
2022/04/21 01:52:37;;;;;;;8.88;7.13;;;6.10;99.90;;;;;;5035466;28;20045;-76
2022/04/21 01:55:06;;;;;;;9.18;7.40;;;6.00;99.90;;;;;;5051427;28;20427;-76
2022/04/21 01:57:32;;;;;;;11.20;6.85;;;5.80;99.90;;;;;;5038474;28;20499;-76
2022/04/21 01:59:58;;;;;;;9.18;7.22;;;5.80;99.90;;;;;;5051152;28;20048;-77
2022/04/21 02:02:23;;;;;;;8.75;6.75;;;5.70;99.90;;;;;;5046348;28;20028;-75
2022/04/21 02:04:49;;;;;;;11.23;7.70;;;5.60;99.90;;;;;;5051651;28;20061;-76
2022/04/21 02:07:15;;;;;;;9.93;6.95;;;5.50;99.90;;;;;;5052189;28;20083;-75
2022/04/21 02:09:40;;;;;;;9.55;6.97;;;5.50;99.90;;;;;;5052619;28;20097;-76
2022/04/21 02:12:07;;;;;;;11.38;7.32;;;5.40;99.90;;;;;;5052013;28;20084;-76
2022/04/21 02:14:42;;;;;;;10.57;7.43;;;5.40;99.90;;;;;;5042537;28;20495;-76
2022/04/21 02:17:10;;;;;;;11.80;7.60;;;5.30;99.90;;;;;;5052044;28;20355;-75
2022/04/21 02:19:39;;;;;;;11.25;8.23;;;5.30;99.90;;;;;;5037790;28;20046;-76
2022/04/21 02:22:04;;;;;;;10.27;6.80;;;5.20;99.90;;;;;;5070274;22;20394;-76
2022/04/21 02:24:30;;;;;;;10.70;7.85;;;5.20;99.90;;;;;;5069355;28;20093;-76
2022/04/21 02:26:55;;;;;;;10.73;7.50;;;5.10;99.90;;;;;;5069073;28;20032;-76
2022/04/21 02:29:21;;;;;;;9.55;7.47;;;5.10;99.90;;;;;;5072144;28;20037;-76
2022/04/21 02:31:46;;;;;;;11.15;7.28;;;5.00;99.90;;;;;;5082150;28;20489;-75
2022/04/21 02:34:12;;;;;;;12.40;8.50;;;5.00;99.90;;;;;;5092544;28;20071;-76
2022/04/21 02:36:38;;;;;;;12.20;8.05;;;4.90;99.90;;;;;;5084959;28;20522;-77
2022/04/21 02:39:04;;;;;;;14.73;8.35;;;4.90;99.90;;;;;;5088523;28;20040;-76
2022/04/21 02:41:30;;;;;;;10.48;8.15;;;4.80;99.90;;;;;;5075595;28;20132;-76
2022/04/21 02:43:55;;;;;;;10.00;7.72;;;4.80;99.90;;;;;;5084276;28;20044;-76
2022/04/21 02:46:28;;;;;;;11.55;8.43;;;4.70;99.90;;;;;;5087375;28;20040;-75
2022/04/21 02:48:55;;;;;;;10.65;8.45;;;4.70;99.90;;;;;;5086128;28;20041;-76
2022/04/21 02:51:21;;;;;;;11.93;8.43;;;4.70;99.90;;;;;;5084327;28;20040;-76
2022/04/21 02:59:14;;;;;;;11.88;8.88;;;4.60;99.90;;;;;;5083605;28;20127;-76
2022/04/21 03:01:40;;;;;;;12.45;8.57;;;4.50;99.90;;;;;;5091882;28;20126;-76
2022/04/21 03:04:05;;;;;;;14.15;9.40;;;4.50;99.90;;;;;;5089279;28;20429;-76
2022/04/21 03:06:31;;;;;;;14.65;9.15;;;4.60;99.90;;;;;;5080035;28;20032;-76
2022/04/21 03:08:56;;;;;;;12.25;8.80;;;4.60;99.90;;;;;;5088787;28;20070;-76
2022/04/21 03:11:22;;;;;;;13.77;9.15;;;4.70;99.90;;;;;;5075272;28;20440;-76
2022/04/21 03:13:47;;;;;;;13.05;9.27;;;4.70;99.90;;;;;;5092166;28;20122;-76
2022/04/21 03:16:13;;;;;;;14.38;9.98;;;4.70;99.90;;;;;;5082721;28;20548;-76
2022/04/21 03:18:38;;;;;;;14.35;9.82;;;4.80;99.90;;;;;;5091282;28;20582;-76
2022/04/21 03:26:32;;;;;;;11.93;9.43;;;4.90;99.90;;;;;;5084096;28;20440;-75
2022/04/21 03:28:57;;;;;;;13.88;10.00;;;4.80;99.90;;;;;;5091339;28;20036;-76
2022/04/21 03:31:23;;;;;;;15.60;10.05;;;4.80;99.90;;;;;;5080618;28;20048;-76
2022/04/21 03:33:50;;;;;;;11.88;9.60;;;4.80;99.90;;;;;;5086676;28;20075;-77
2022/04/21 03:36:16;;;;;;;13.20;10.00;;;4.70;99.90;;;;;;5077889;28;20036;-76
2022/04/21 03:38:42;;;;;;;16.30;11.05;;;4.60;99.90;;;;;;5069359;28;20089;-76
2022/04/21 03:41:07;;;;;;;17.05;10.98;;;4.60;99.90;;;;;;5073327;28;20119;-76
2022/04/21 03:43:33;;;;;;;14.20;10.65;;;4.60;99.90;;;;;;5089954;28;20112;-76
2022/04/21 03:45:59;;;;;;;15.18;11.15;;;4.70;99.90;;;;;;5086939;28;20040;-76
2022/04/21 03:48:24;;;;;;;15.27;10.80;;;4.80;99.90;;;;;;5089433;28;20040;-76
2022/04/21 03:50:50;;;;;;;16.60;11.85;;;4.90;99.90;;;;;;5083952;28;20058;-76
2022/04/21 03:53:16;;;;;;;13.60;10.82;;;5.00;99.90;;;;;;5071070;28;20123;-76
2022/04/21 03:55:42;;;;;;;15.02;10.40;;;5.10;99.90;;;;;;5056213;28;20127;-76
2022/04/21 03:58:07;;;;;;;17.50;12.10;;;5.20;99.90;;;;;;5086486;28;20533;-76
2022/04/21 04:00:33;;;;;;;15.05;10.98;;;5.30;99.90;;;;;;5073841;28;20039;-76
2022/04/21 04:02:59;;;;;;;14.18;9.80;;;5.30;99.90;;;;;;5090323;28;20410;-75
2022/04/21 04:05:24;;;;;;;12.40;9.68;;;5.40;99.90;;;;;;5081737;28;20681;-76
2022/04/21 04:13:22;;;;;;;14.00;10.25;;;5.40;99.90;;;;;;5077674;28;20528;-76
2022/04/21 04:15:49;;;;;;;13.80;10.75;;;5.30;99.90;;;;;;5079515;28;20032;-76
2022/04/21 04:18:24;;;;;;;13.57;10.70;;;5.30;99.90;;;;;;5090378;28;20238;-76
2022/04/21 04:20:49;;;;;;;15.23;10.82;;;5.30;99.90;;;;;;5090845;28;20075;-77
2022/04/21 04:23:16;;;;;;;15.82;11.57;;;5.30;99.90;;;;;;5071599;28;20112;-76
2022/04/21 04:25:42;;;;;;;12.43;10.45;;;5.30;99.90;;;;;;5067020;28;20489;-76
2022/04/21 04:28:07;;;;;;;12.85;10.45;;;5.30;99.90;;;;;;5088031;28;20227;-75
2022/04/21 04:30:33;;;;;;;17.55;10.60;;;5.30;99.90;;;;;;5082790;28;20106;-74
2022/04/21 04:32:59;;;;;;;13.82;10.65;;;5.30;99.90;;;;;;5089619;28;20508;-75
2022/04/21 04:35:25;;;;;;;15.35;11.32;;;5.30;99.90;;;;;;5068048;28;20213;-75
2022/04/21 04:37:52;;;;;;;14.27;10.88;;;5.30;99.90;;;;;;5090115;28;20051;-75
2022/04/21 04:40:18;;;;;;;15.50;12.18;;;5.20;99.90;;;;;;5060692;28;20120;-76
2022/04/21 04:42:44;;;;;;;15.75;11.15;;;5.20;99.90;;;;;;5062832;28;20031;-76
2022/04/21 04:47:53;;;;;;;15.68;11.65;;;5.20;99.90;;;;;;5082221;28;20117;-76
2022/04/21 04:50:19;;;;;;;16.05;11.60;;;5.20;99.90;;;;;;5085143;28;20082;-76
2022/04/21 04:52:44;;;;;;;15.32;10.80;;;5.20;99.90;;;;;;5086101;28;20141;-76
2022/04/21 04:55:11;;;;;;;15.65;11.75;;;5.30;99.90;;;;;;5090035;28;20033;-76
2022/04/21 04:57:38;;;;;;;17.17;11.63;;;5.20;99.90;;;;;;5084752;28;20051;-75
2022/04/21 05:00:05;;;;;;;15.13;11.23;;;5.20;99.90;;;;;;5075801;28;20087;-78
2022/04/21 05:02:31;;;;;;;15.10;11.40;;;5.30;99.90;;;;;;5081857;28;20551;-75
2022/04/21 05:04:57;;;;;;;14.05;11.25;;;5.30;99.90;;;;;;5082188;28;20044;-75
2022/04/21 05:07:22;;;;;;;14.27;11.18;;;5.40;99.90;;;;;;5090066;28;20032;-75
2022/04/21 05:09:48;;;;;;;14.82;11.65;;;5.40;99.90;;;;;;5089985;28;20036;-75
2022/04/21 05:12:14;;;;;;;15.20;11.63;;;5.50;99.90;;;;;;5083063;28;20401;-75
2022/04/21 05:14:40;;;;;;;15.25;11.40;;;5.50;99.90;;;;;;5057075;28;20131;-75
2022/04/21 05:17:05;;;;;;;16.33;11.23;;;5.50;99.90;;;;;;5083834;28;20127;-75
2022/04/21 05:19:31;;;;;;;16.35;11.25;;;5.60;99.90;;;;;;5072864;28;20126;-76
2022/04/21 05:22:02;;;;;;;15.15;11.60;;;5.70;99.90;;;;;;5089497;28;20037;-75
2022/04/21 05:24:31;;;;;;;14.30;10.95;;;5.80;99.90;;;;;;5059432;28;20102;-76
2022/04/21 05:26:57;;;;;;;14.23;11.10;;;5.90;99.90;;;;;;5081445;28;20040;-76
2022/04/21 05:32:07;;;;;;;14.20;11.02;;;6.00;99.90;;;;;;5085696;28;20044;-76
2022/04/21 05:34:33;;;;;;;13.90;10.93;;;6.10;99.90;;;;;;5073224;28;20036;-76
2022/04/21 05:37:00;;;;;;;14.95;11.57;;;6.20;99.90;;;;;;5070103;28;20044;-76
2022/04/21 05:39:27;;;;;;;14.57;10.60;;;6.20;99.90;;;;;;5089612;28;20089;-76
2022/04/21 05:41:53;;;;;;;15.40;11.15;;;6.30;99.90;;;;;;5083530;28;20036;-77
2022/04/21 05:44:19;;;;;;;14.68;10.55;;;6.40;99.90;;;;;;5065538;28;20051;-77
2022/04/21 05:46:45;;;;;;;13.32;9.75;;;6.50;99.90;;;;;;5073094;28;20490;-77
2022/04/21 05:49:12;;;;;;;15.63;11.43;;;6.60;99.90;;;;;;5091786;28;20036;-77
2022/04/21 05:51:38;;;;;;;11.90;9.55;;;6.70;99.90;;;;;;5092432;28;20051;-76
2022/04/21 05:54:05;;;;;;;14.50;11.27;;;6.80;99.90;;;;;;5091724;28;20041;-77
2022/04/21 05:56:32;;;;;;;12.88;10.05;;;6.90;99.90;;;;;;5092356;28;20481;-77
2022/04/21 05:58:58;;;;;;;12.93;9.73;;;6.90;99.90;;;;;;5092999;28;20040;-77
2022/04/21 06:01:24;;;;;;;16.13;11.02;;;7.00;99.90;;;;;;5091682;28;20036;-76
2022/04/21 06:03:51;;;;;;;13.70;10.02;;;7.10;99.90;;;;;;5072362;28;20036;-76
2022/04/21 06:06:17;;;;;;;14.70;10.18;;;7.10;99.90;;;;;;5073240;28;20044;-77
2022/04/21 06:08:42;;;;;;;12.63;10.32;;;7.20;99.90;;;;;;5072823;28;20045;-76
2022/04/21 06:11:08;;;;;;;13.25;9.90;;;7.20;99.90;;;;;;5083966;28;20040;-76
2022/04/21 06:13:34;;;;;;;13.98;10.45;;;7.40;99.90;;;;;;5092928;28;20040;-76
2022/04/21 06:15:59;;;;;;;13.77;9.98;;;7.40;99.90;;;;;;5093015;28;20391;-76
2022/04/21 06:18:26;;;;;;;13.70;9.63;;;7.50;99.90;;;;;;5092792;28;20043;-76
2022/04/21 06:20:54;;;;;;;13.95;9.40;;;7.60;99.90;;;;;;5085141;28;20127;-76
2022/04/21 06:23:21;;;;;;;13.43;9.82;;;7.70;99.90;;;;;;5082507;28;20033;-77
2022/04/21 06:25:47;;;;;;;12.07;9.30;;;7.80;99.90;;;;;;5072321;28;20036;-77
2022/04/21 06:28:13;;;;;;;12.70;9.43;;;8.00;99.90;;;;;;5092758;28;20054;-76
2022/04/21 06:30:39;;;;;;;11.52;9.13;;;8.10;99.90;;;;;;5085507;28;20047;-76
2022/04/21 06:33:05;;;;;;;12.98;8.68;;;8.10;99.90;;;;;;5092797;28;20122;-76
2022/04/21 06:35:31;;;;;;;11.20;8.85;;;8.10;99.90;;;;;;5092785;28;20075;-77
2022/04/21 06:37:56;;;;;;;10.27;8.40;;;8.20;99.90;;;;;;5092905;28;20275;-77
2022/04/21 06:40:23;;;;;;;10.57;7.93;;;8.30;99.90;;;;;;5081056;28;20047;-77
2022/04/21 06:42:49;;;;;;;10.73;8.65;;;8.50;99.90;;;;;;5088134;28;20485;-77
2022/04/21 06:48:02;;;;;;;11.65;7.82;;;8.90;99.90;;;;;;5093192;28;20055;-77
2022/04/21 06:50:27;;;;;;;10.50;7.63;;;9.20;99.90;;;;;;5091035;28;20036;-76
2022/04/21 06:52:53;;;;;;;9.63;7.47;;;9.20;99.90;;;;;;5092474;28;20397;-77
2022/04/21 06:55:19;;;;;;;10.57;7.03;;;9.20;99.90;;;;;;5093030;28;20035;-77
2022/04/21 06:57:44;;;;;;;10.90;7.28;;;9.20;99.90;;;;;;5092766;28;20039;-77
2022/04/21 07:00:10;;;;;;;11.00;7.30;;;9.30;99.90;;;;;;5085245;28;20024;-77
2022/04/21 07:02:41;;;;;;;10.05;7.32;;;9.30;99.90;;;;;;5092222;28;20043;-77
2022/04/21 07:05:09;;;;;;;9.55;7.18;;;9.30;99.90;;;;;;5064441;28;20036;-76
2022/04/21 07:07:35;;;;;;;8.52;6.57;;;9.40;99.90;;;;;;5092283;28;20490;-76
2022/04/21 07:10:01;;;;;;;8.40;6.57;;;9.50;99.90;;;;;;5091984;28;20040;-77
2022/04/21 07:12:28;;;;;;;6.85;5.97;;;9.60;99.90;;;;;;5091982;28;20398;-77
2022/04/21 07:14:55;;;;;;;8.63;6.30;;;9.70;99.90;;;;;;5067873;28;20445;-77
2022/04/21 07:17:21;;;;;;;9.93;6.78;;;9.90;99.90;;;;;;5091868;28;20040;-77
2022/04/21 07:19:48;;;;;;;7.85;5.72;;;10.00;99.90;;;;;;5091898;28;20391;-77
2022/04/21 07:22:13;;;;;;;6.88;5.50;;;10.00;99.90;;;;;;5092159;28;20044;-76
2022/04/21 07:24:39;;;;;;;7.35;5.72;;;10.10;99.90;;;;;;5082590;28;20040;-77
2022/04/21 07:27:05;;;;;;;7.35;5.05;;;10.20;99.90;;;;;;5088731;28;20036;-76
2022/04/21 07:29:30;;;;;;;6.60;4.80;;;10.40;99.90;;;;;;5091721;28;20482;-77
2022/04/21 07:31:56;;;;;;;8.05;4.32;;;10.50;99.90;;;;;;5092035;28;20047;-76
2022/04/21 07:34:23;;;;;;;6.75;5.00;;;10.60;99.90;;;;;;5073718;28;20063;-77
2022/04/21 07:36:49;;;;;;;7.43;4.93;;;10.80;99.90;;;;;;5091978;28;20043;-77
2022/04/21 07:39:15;;;;;;;7.30;4.90;;;10.90;99.70;;;;;;5091576;28;20036;-76
2022/04/21 07:41:41;;;;;;;6.55;4.35;;;11.00;98.90;;;;;;5092252;28;20032;-76
2022/04/21 07:44:07;;;;;;;7.50;4.63;;;11.00;98.30;;;;;;5085154;28;20052;-76
2022/04/21 07:46:33;;;;;;;9.23;5.05;;;11.10;99.00;;;;;;5088653;28;20040;-77
2022/04/21 07:51:42;;;;;;;6.03;3.65;;;11.30;96.70;;;;;;5071435;28;20071;-77
2022/04/21 07:54:08;;;;;;;6.10;3.70;;;11.40;95.10;;;;;;5089399;28;20048;-76
2022/04/21 07:56:34;;;;;;;6.20;3.90;;;11.50;94.60;;;;;;5091123;28;20131;-76
2022/04/21 07:59:00;;;;;;;4.97;3.80;;;11.50;95.90;;;;;;5090342;28;20055;-77
2022/04/21 08:01:28;;;;;;;4.80;3.80;;;11.70;95.90;;;;;;5091419;28;20040;-76
2022/04/21 08:03:53;;;;;;;5.75;3.50;;;11.80;94.60;;;;;;5083138;28;20036;-77
2022/04/21 08:06:19;;;;;;;5.10;3.47;;;11.90;94.60;;;;;;5081480;28;20125;-77
2022/04/21 08:08:44;;;;;;;4.03;2.83;;;12.10;92.50;;;;;;5070948;28;20071;-77
2022/04/21 08:11:10;;;;;;;4.15;3.25;;;12.20;89.90;;;;;;5074817;28;20047;-77
2022/04/21 08:13:35;;;;;;;5.38;2.92;;;12.30;88.70;;;;;;5075603;28;20043;-77
2022/04/21 08:16:01;;;;;;;5.97;3.17;;;12.40;87.50;;;;;;5085404;28;20036;-76
2022/04/21 08:18:27;;;;;;;4.35;2.80;;;12.50;83.00;;;;;;5092278;28;20040;-77
2022/04/21 08:20:57;;;;;;;4.97;2.97;;;12.60;83.90;;;;;;5092661;28;20497;-77
2022/04/21 08:23:30;;;;;;;4.70;3.05;;;12.70;82.70;;;;;;5077606;22;20414;-79
2022/04/21 08:34:14;;;;;;;4.72;2.90;;;14.90;68.30;;;;;;5033143;28;20487;-79
2022/04/21 08:36:54;;;;;;;3.85;2.88;;;15.60;63.40;;;;;;5008341;28;20488;-79
2022/04/21 08:39:31;;;;;;;4.60;2.58;;;16.20;60.60;;;;;;5015145;28;20080;-79
2022/04/21 08:45:08;;;;;;;4.82;2.50;;;16.70;53.30;;;;;;5007040;28;20050;-79
2022/04/21 08:47:46;;;;;;;7.95;2.80;;;16.70;52.50;;;;;;4998950;28;20475;-79
2022/04/21 08:50:44;;;;;;;;;;;;;;;;;;;;;
2022/04/21 08:54:06;;;;;;;5.30;3.17;;;16.90;52.10;;;;;;5008086;28;20535;-79
2022/04/21 08:57:36;;;;;;;3.67;2.90;;;16.90;53.10;;;;;;4942320;29;20047;-79
2022/04/21 09:03:33;;;;;;;;;;;;;;;;;;;;;
2022/04/21 09:06:10;;;;;;;4.82;3.38;;;17.40;52.50;;;;;;5034999;28;20120;-79
2022/04/21 09:08:45;;;;;;;3.90;2.97;;;17.70;53.20;;;;;;5019280;28;20092;-79
2022/04/21 09:11:31;;;;;;;6.25;3.13;;;17.80;52.00;;;;;;5032700;28;20073;-79
2022/04/21 09:14:05;;;;;;;4.15;3.05;;;18.00;51.00;;;;;;5003798;28;20522;-79
2022/04/21 09:16:49;;;;;;;3.50;2.90;;;17.90;51.00;;;;;;5023740;28;20069;-79
2022/04/21 09:19:28;;;;;;;4.70;2.92;;;18.00;50.40;;;;;;4999737;28;20115;-78
2022/04/21 09:22:00;;;;;;;4.50;3.05;;;17.90;50.90;;;;;;4999565;28;20045;-79
2022/04/21 09:24:30;;;;;;;5.17;2.90;;;18.00;51.70;;;;;;5010885;28;20054;-79
2022/04/21 09:27:11;;;;;;;3.83;2.83;;;18.20;49.70;;;;;;5020897;28;20500;-79
2022/04/21 09:29:43;;;;;;;4.00;2.60;;;18.20;50.50;;;;;;5023827;28;20045;-79
2022/04/21 09:32:17;;;;;;;3.97;2.90;;;18.10;52.00;;;;;;5025892;28;20127;-79
2022/04/21 09:34:50;;;;;;;4.25;2.92;;;18.50;49.90;;;;;;5031248;28;20487;-80
2022/04/21 09:37:27;;;;;;;5.25;2.78;;;18.70;47.80;;;;;;5011687;28;20053;-79
2022/04/21 09:40:00;;;;;;;2.97;2.38;;;18.60;48.30;;;;;;5024476;28;20037;-79
2022/04/21 09:42:30;;;;;;;3.67;2.45;;;18.50;48.50;;;;;;5019054;28;20115;-79
2022/04/21 09:48:37;;;;;;;4.07;2.45;;;18.60;46.90;;;;;;5014433;28;20050;-79
2022/04/21 09:51:17;;;;;;;4.25;2.67;;;18.20;48.40;;;;;;4977624;28;20542;-79
2022/04/21 09:54:01;;;;;;;8.25;3.08;;;18.20;48.10;;;;;;5015547;28;20034;-79
2022/04/21 09:56:41;;;;;;;4.55;2.90;;;18.20;48.80;;;;;;5036395;28;20071;-79
2022/04/21 09:59:21;;;;;;;3.45;2.70;;;18.20;48.70;;;;;;5019734;28;20123;-79
2022/04/21 10:01:52;;;;;;;5.10;2.70;;;18.20;49.20;;;;;;5009755;28;20041;-79
2022/04/21 10:04:24;;;;;;;4.13;2.75;;;18.50;48.60;;;;;;5016982;28;20038;-80
2022/04/21 10:07:00;;;;;;;4.40;2.80;;;18.70;47.70;;;;;;5000526;28;20464;-79
2022/04/21 10:09:42;;;;;;;2.97;2.67;;;18.70;47.40;;;;;;4999199;28;20085;-79
2022/04/21 10:12:12;;;;;;;3.35;2.80;;;18.60;48.70;;;;;;4995367;28;20452;-80
2022/04/21 10:14:56;;;;;;;5.75;2.80;;;19.00;48.30;;;;;;5005255;28;20034;-80
2022/04/21 10:17:30;;;;;;;5.35;3.40;;;19.20;46.30;;;;;;5005740;28;20038;-79
2022/04/21 10:19:56;;;;;;;4.00;2.85;;;19.10;46.50;;;;;;5020767;28;20042;-79
2022/04/21 10:22:45;;;;;;;3.55;2.58;;;19.10;47.00;;;;;;5036773;28;20132;-79
2022/04/21 10:25:37;;;;;;;3.75;2.63;;;19.20;46.30;;;;;;5020234;28;20114;-79
2022/04/21 10:28:42;;;;;;;3.92;2.22;;;18.80;50.10;;;;;;5042164;28;20045;-79
2022/04/21 10:31:31;;;;;;;4.50;3.00;;;19.30;47.10;;;;;;5020133;28;20037;-80
2022/04/21 10:34:05;;;;;;;4.13;2.88;;;19.60;46.60;;;;;;5021341;28;20034;-79
2022/04/21 10:37:03;;;;;;;3.50;2.40;;;19.70;45.00;;;;;;5023307;28;20042;-79
2022/04/21 10:40:20;;;;;;;3.13;2.28;;;19.60;44.50;;;;;;5009957;28;20041;-79
2022/04/21 10:43:03;;;;;;;3.60;2.45;;;19.50;45.40;;;;;;5008546;28;20061;-80
2022/04/21 10:45:55;;;;;;;3.28;2.47;;;19.50;44.20;;;;;;4982003;28;20101;-79
2022/04/21 10:48:41;;;;;;;4.22;2.47;;;19.40;45.40;;;;;;4968094;28;20448;-79
2022/04/21 10:51:10;;;;;;;4.00;2.30;;;19.70;43.90;;;;;;4999088;28;20042;-80
2022/04/21 11:00:13;;;;;;;3.13;2.45;;;19.60;43.60;;;;;;5039627;28;20467;-79
2022/04/21 11:02:43;;;;;;;4.45;2.95;;;19.50;44.10;;;;;;5001761;28;20049;-79
2022/04/21 11:05:34;;;;;;;3.63;2.75;;;19.40;45.40;;;;;;5020820;28;20108;-79
2022/04/21 11:08:19;;;;;;;3.58;2.70;;;19.60;45.30;;;;;;5009428;28;20038;-79
2022/04/21 11:10:55;;;;;;;;;;;19.80;45.70;;;;;;5011643;28;20041;-79
2022/04/21 11:13:54;;;;;;;3.13;2.70;;;19.90;44.00;;;;;;5001956;28;19957;-79
2022/04/21 11:16:58;;;;;;;3.50;2.55;;;20.20;44.00;;;;;;5005754;28;20424;-80
2022/04/21 11:19:40;;;;;;;5.88;2.70;;;20.20;42.90;;;;;;4984967;28;20066;-80
2022/04/21 11:22:14;;;;;;;3.63;2.53;;;20.20;42.50;;;;;;5028435;28;20128;-80
2022/04/21 11:25:01;;;;;;;3.08;2.47;;;20.20;42.00;;;;;;5019038;28;20041;-79
2022/04/21 11:27:27;;;;;;;7.18;2.65;;;19.90;43.50;;;;;;5022018;28;20084;-79
2022/04/21 11:30:02;;;;;;;3.70;2.50;;;20.10;43.30;;;;;;5009871;28;20041;-79
2022/04/21 11:32:28;;;;;;;2.97;2.42;;;20.20;42.90;;;;;;5011154;28;20124;-80
2022/04/21 11:35:09;;;;;;;2.95;2.40;;;20.20;42.10;;;;;;5022823;28;20049;-80
2022/04/21 11:37:57;;;;;;;3.05;2.33;;;20.10;44.20;;;;;;5024310;28;20041;-79
2022/04/21 11:40:32;;;;;;;3.80;2.30;;;20.40;42.00;;;;;;5031690;28;20049;-79
2022/04/21 11:43:29;;;;;;;3.78;2.65;;;20.40;42.50;;;;;;5011107;28;20175;-79
2022/04/21 11:45:58;;;;;;;3.78;2.50;;;20.50;43.20;;;;;;5019362;28;20037;-80
2022/04/21 11:48:33;;;;;;;3.72;2.30;;;20.60;42.80;;;;;;5032369;28;20061;-79
2022/04/21 11:51:00;;;;;;;3.28;2.47;;;20.70;39.90;;;;;;5032043;28;20044;-80
2022/04/21 11:53:37;;;;;;;2.92;2.10;;;20.40;41.00;;;;;;5017521;28;20042;-80
2022/04/21 11:56:12;;;;;;;3.38;2.10;;;20.10;43.30;;;;;;5034653;28;20042;-80
2022/04/21 11:58:41;;;;;;;2.80;2.10;;;20.30;42.00;;;;;;5018909;28;20450;-80
2022/04/21 12:06:58;;;;;;;3.63;2.50;;;20.30;43.00;;;;;;5034942;28;20154;-79
2022/04/21 12:09:34;;;;;;;3.92;2.75;;;20.30;43.50;;;;;;5022279;28;20045;-79
2022/04/21 12:12:10;;;;;;;;;;;20.20;43.10;;;;;;5016616;28;20451;-79
2022/04/21 12:14:43;;;;;;;5.30;3.30;;;20.00;43.70;;;;;;5019631;28;19917;-80
2022/04/21 12:17:12;;;;;;;3.67;3.03;;;19.90;44.30;;;;;;5017550;28;20523;-79
2022/04/21 12:19:40;;;;;;;3.85;2.75;;;19.90;45.00;;;;;;5023189;28;20034;-80
2022/04/21 12:22:36;;;;;;;3.65;2.58;;;20.00;45.50;;;;;;5025188;28;20514;-80
2022/04/21 12:25:11;;;;;;;2.83;2.55;;;19.80;44.60;;;;;;5014013;28;20041;-79
2022/04/21 12:27:40;;;;;;;2.90;2.55;;;19.70;43.50;;;;;;5034895;28;20037;-79
2022/04/21 12:30:08;;;;;;;2.97;2.65;;;19.40;44.80;;;;;;5018523;28;20068;-80
2022/04/21 12:32:40;;;;;;;3.60;3.08;;;19.40;44.00;;;;;;5012075;28;20034;-80
2022/04/21 12:35:12;;;;;;;3.97;2.97;;;19.30;44.50;;;;;;5024757;28;20073;-79
2022/04/21 12:40:47;;;;;;;5.15;3.28;;;19.20;45.90;;;;;;5036415;28;20033;-80
2022/04/21 12:43:18;;;;;;;3.70;2.92;;;19.30;45.30;;;;;;5018666;28;20099;-80
2022/04/21 12:45:50;;;;;;;3.53;2.97;;;19.50;45.00;;;;;;5018032;28;20051;-79
2022/04/21 12:48:27;;;;;;;5.32;2.95;;;19.60;45.90;;;;;;5003573;28;20045;-79
2022/04/21 12:51:16;;;;;;;5.25;3.30;;;19.80;46.00;;;;;;5002979;28;20042;-79
2022/04/21 12:54:00;;;;;;;4.78;3.45;;;19.70;45.40;;;;;;4999616;28;20042;-79
2022/04/21 12:56:41;;;;;;;4.32;3.50;;;19.50;45.70;;;;;;4998370;28;20042;-80
2022/04/21 12:59:16;;;;;;;4.78;3.63;;;19.60;46.10;;;;;;5003474;28;20041;-80
2022/04/21 13:01:45;;;;;;;6.22;3.60;;;19.80;45.70;;;;;;5017994;28;20080;-80
2022/04/21 13:04:13;;;;;;;4.82;3.47;;;20.00;45.70;;;;;;5046102;28;20049;-79
2022/04/21 13:06:42;;;;;;;5.72;3.70;;;20.30;45.10;;;;;;5039142;28;20554;-79
2022/04/21 13:09:11;;;;;;;7.32;3.42;;;20.50;44.90;;;;;;5021640;28;20041;-79
2022/04/21 13:11:39;;;;;;;4.88;3.67;;;20.40;45.40;;;;;;5021596;28;20075;-79
2022/04/21 13:14:08;;;;;;;4.70;3.55;;;20.50;45.80;;;;;;5022179;28;20392;-79
2022/04/21 13:16:35;;;;;;;5.07;3.97;;;20.60;45.50;;;;;;5012224;28;20044;-79
2022/04/21 13:19:04;;;;;;;6.90;3.83;;;20.60;45.70;;;;;;5024219;28;20220;-79
2022/04/21 13:21:55;;;;;;;4.53;3.85;;;20.80;46.40;;;;;;5021522;28;20156;-79
2022/04/21 13:24:25;;;;;;;6.65;4.03;;;21.00;45.90;;;;;;5020840;28;20041;-79
2022/04/21 13:27:03;;;;;;;4.95;3.53;;;21.00;46.00;;;;;;5007361;28;20303;-79
2022/04/21 13:29:29;;;;;;;5.30;3.60;;;21.00;45.30;;;;;;5003639;28;20041;-80
2022/04/21 13:34:51;;;;;;;5.07;3.58;;;20.70;45.50;;;;;;5018350;28;20081;-79
2022/04/21 13:37:20;;;;;;;3.63;2.95;;;20.60;45.80;;;;;;5004083;28;20038;-80
2022/04/21 13:39:55;;;;;;;3.83;3.33;;;20.50;44.90;;;;;;5004782;28;20476;-79
2022/04/21 13:42:21;;;;;;;5.18;3.70;;;20.30;44.50;;;;;;5009441;28;20136;-79
2022/04/21 13:45:02;;;;;;;4.60;3.20;;;20.30;44.70;;;;;;5036867;28;20503;-79
2022/04/21 13:47:36;;;;;;;4.30;3.28;;;20.40;44.50;;;;;;5024301;28;20414;-79
2022/04/21 13:50:05;;;;;;;4.60;3.28;;;20.30;44.70;;;;;;5021984;28;20049;-79
2022/04/21 13:52:42;;;;;;;4.70;3.40;;;20.10;46.40;;;;;;5022318;28;20076;-79
2022/04/21 13:55:09;;;;;;;5.55;3.63;;;20.00;46.20;;;;;;5012864;28;20034;-79
2022/04/21 13:57:41;;;;;;;7.10;3.90;;;19.70;45.60;;;;;;5012479;28;20052;-79
2022/04/21 14:00:17;;;;;;;6.07;3.75;;;19.20;46.00;;;;;;5002231;28;20137;-79
2022/04/21 14:02:48;;;;;;;5.45;3.50;;;18.80;47.10;;;;;;5001470;28;20056;-79
2022/04/21 14:05:20;;;;;;;6.40;4.10;;;18.60;47.70;;;;;;5000321;28;20128;-79
2022/04/21 14:07:49;;;;;;;7.55;4.00;;;18.70;48.70;;;;;;5015964;28;20049;-79
2022/04/21 14:10:38;;;;;;;6.68;4.57;;;19.10;48.80;;;;;;5026716;28;20046;-79
2022/04/21 14:13:06;;;;;;;5.13;3.92;;;19.50;47.90;;;;;;5039233;28;20049;-79
2022/04/21 14:15:39;;;;;;;4.32;3.50;;;19.80;48.20;;;;;;5027753;28;20045;-80
2022/04/21 14:18:08;;;;;;;4.65;3.70;;;20.10;47.10;;;;;;5023478;28;20495;-79
2022/04/21 14:20:34;;;;;;;4.93;3.40;;;20.30;46.40;;;;;;5020014;28;20045;-79